Time;durP1;ratioP1;P1;durP2;ratioP2;P2;SDS_P1;SDS_P2;PMS_P1;PMS_P2;Temp;Humidity;BMP_temperature;BMP_pressure;BME280_temperature;BME280_humidity;BME280_pressure;Samples;Min_cycle;Max_cycle;Signal;HPM_P1;HPM_P2
2020/12/09 00:00:43;;;;;;;;;30.56;25.89;;;;;-6.66;74.34;101152.77;481373;112;392099;-51
2020/12/09 00:01:48;;;;;;;;;22.00;16.67;;;;;-6.68;74.43;101155.31;479956;113;383008;-52
2020/12/09 00:02:50;;;;;;;;;25.60;18.10;;;;;-6.68;74.43;101155.31;480420;113;383687;-47
2020/12/09 00:03:53;;;;;;;;;28.90;23.10;;;;;-6.71;74.39;101157.02;481880;112;385696;-49
2020/12/09 00:05:12;;;;;;;;;21.30;18.10;;;;;-6.71;74.39;101157.02;480501;112;382042;-50
2020/12/09 00:06:37;;;;;;;;;23.50;19.00;;;;;-6.68;74.27;101154.47;479185;113;389785;-47
2020/12/09 00:07:38;;;;;;;;;20.80;16.60;;;;;-6.66;74.33;101150.21;478873;112;383980;-49
2020/12/09 00:08:41;;;;;;;;;26.90;22.70;;;;;-6.63;74.41;101155.31;471974;115;384516;-49
2020/12/09 00:09:43;;;;;;;;;16.30;9.60;;;;;-6.64;74.15;101149.36;484105;112;377708;-51
2020/12/09 00:10:45;;;;;;;;;16.60;13.30;;;;;-6.64;73.94;101151.91;483306;112;379362;-49
2020/12/09 00:11:52;;;;;;;;;4.11;1.44;;;;;-6.64;73.94;101151.91;480481;113;373381;-49
2020/12/09 00:12:54;;;;;;;;;19.50;17.50;;;;;-6.65;73.82;101157.86;479292;112;387866;-49
2020/12/09 00:13:57;;;;;;;;;17.90;14.70;;;;;-6.58;73.23;101151.94;477210;112;382713;-48
2020/12/09 00:14:59;;;;;;;;;21.10;17.80;;;;;-6.59;73.35;101150.24;482913;110;383459;-48
2020/12/09 00:16:01;;;;;;;;;16.91;13.64;;;;;-6.52;73.58;101145.98;484811;112;385958;-49
2020/12/09 00:17:03;;;;;;;;;29.90;20.50;;;;;-6.52;73.58;101145.98;483697;112;384283;-47
2020/12/09 00:18:24;;;;;;;;;22.50;14.30;;;;;-6.51;73.02;101150.23;484864;112;379396;-51
2020/12/09 00:19:26;;;;;;;;;18.50;14.20;;;;;-6.44;72.97;101144.27;484355;112;380573;-47
2020/12/09 00:20:28;;;;;;;;;18.60;16.40;;;;;-6.44;72.97;101144.27;482127;112;380788;-48
2020/12/09 00:21:33;;;;;;;;;20.60;11.70;;;;;-6.44;72.70;101142.56;485163;112;381649;-49
2020/12/09 00:22:35;;;;;;;;;16.67;11.33;;;;;-6.41;72.66;101146.81;497319;108;379455;-48
2020/12/09 00:23:37;;;;;;;;;18.00;14.00;;;;;-6.43;72.50;101145.97;498595;108;386901;-47
2020/12/09 00:24:39;;;;;;;;;5.56;3.44;;;;;-6.43;72.50;101145.97;496205;110;374990;-49
2020/12/09 00:25:40;;;;;;;;;11.00;10.44;;;;;-6.41;72.31;101141.72;499356;108;377092;-48
2020/12/09 00:26:44;;;;;;;;;22.60;16.90;;;;;-6.39;72.45;101139.19;497991;108;384098;-46
2020/12/09 00:27:46;;;;;;;;;14.89;9.11;;;;;-6.34;72.50;101138.33;498962;108;379032;-49
2020/12/09 00:28:48;;;;;;;;;19.67;16.56;;;;;-6.34;72.50;101138.33;495873;110;388768;-49
2020/12/09 00:29:50;;;;;;;;;21.00;18.00;;;;;-6.36;72.36;101136.63;495688;110;383456;-50
2020/12/09 00:30:52;;;;;;;;;24.20;19.80;;;;;-6.34;72.35;101134.93;492848;108;383175;-51
2020/12/09 00:31:54;;;;;;;;;19.40;13.10;;;;;-6.34;72.35;101134.93;493061;108;380537;-49
2020/12/09 00:32:56;;;;;;;;;16.22;12.56;;;;;-6.29;72.03;101136.62;486132;110;380883;-48
2020/12/09 00:33:59;;;;;;;;;21.78;16.78;;;;;-6.29;72.03;101136.62;486147;110;382928;-50
2020/12/09 00:35:07;;;;;;;;;16.70;14.30;;;;;-6.31;72.10;101137.47;467995;112;386657;-50
2020/12/09 00:36:09;;;;;;;;;23.40;17.80;;;;;-6.22;72.14;101135.75;486914;110;383354;-47
2020/12/09 00:37:11;;;;;;;;;18.78;16.11;;;;;-6.17;72.14;101138.33;489418;110;382105;-49
2020/12/09 00:38:13;;;;;;;;;22.00;16.11;;;;;-6.16;71.66;101137.47;486433;110;384306;-46
2020/12/09 00:39:15;;;;;;;;;25.00;17.56;;;;;-6.07;71.68;101132.34;498070;108;383063;-50
2020/12/09 00:40:17;;;;;;;;;19.89;14.67;;;;;-6.00;72.02;101128.09;489273;110;380392;-51
2020/12/09 00:41:23;;;;;;;;;19.78;16.22;;;;;-6.00;72.02;101128.09;486687;110;381768;-50
2020/12/09 00:42:25;;;;;;;;;18.10;11.80;;;;;-6.04;71.30;101123.81;486185;111;382573;-49
2020/12/09 00:43:27;;;;;;;;;12.89;9.11;;;;;-5.97;71.00;101117.87;493196;110;376395;-48
2020/12/09 00:44:29;;;;;;;;;23.00;17.22;;;;;-5.97;71.00;101117.87;488806;110;383851;-45
2020/12/09 00:45:31;;;;;;;;;13.11;9.67;;;;;-5.95;71.27;101122.11;488347;110;377648;-48
2020/12/09 00:46:33;;;;;;;;;17.50;15.90;;;;;-5.85;71.31;101113.52;491144;110;382007;-49
2020/12/09 00:47:40;;;;;;;;;11.22;9.44;;;;;-5.85;71.31;101113.52;486261;110;376900;-50
2020/12/09 00:48:42;;;;;;;;;18.10;14.20;;;;;-5.85;70.75;101113.52;488266;110;386614;-45
2020/12/09 00:51:25;;;;;;;;;7.00;4.60;;;;;-5.74;71.39;101117.77;493952;108;381898;-45
2020/12/09 00:52:30;;;;;;;;;16.70;15.80;;;;;-5.74;71.39;101117.77;486034;110;383142;-45
2020/12/09 00:53:32;;;;;;;;;14.10;12.00;;;;;-5.75;70.50;101126.29;486736;111;386470;-48
2020/12/09 00:54:34;;;;;;;;;15.22;12.89;;;;;-5.75;70.50;101126.29;490560;110;388717;-45
2020/12/09 00:55:36;;;;;;;;;25.11;19.78;;;;;-5.77;70.46;101118.63;486455;111;385462;-48
2020/12/09 00:56:43;;;;;;;;;22.30;17.10;;;;;-5.79;70.18;101117.79;489541;111;387905;-49
2020/12/09 00:57:45;;;;;;;;;23.40;17.80;;;;;-5.82;70.17;101123.73;486911;110;390838;-49
2020/12/09 00:58:47;;;;;;;;;15.11;11.33;;;;;-5.82;70.17;101123.73;488161;111;376911;-47
2020/12/09 00:59:49;;;;;;;;;19.70;16.20;;;;;-5.74;70.60;101115.22;487883;110;382931;-49
2020/12/09 01:00:52;;;;;;;;;22.82;16.82;;;;;-5.74;70.56;101118.62;487793;110;384798;-48
2020/12/09 01:01:55;;;;;;;;;21.20;15.90;;;;;-5.72;70.01;101113.50;488109;111;381669;-48
2020/12/09 01:02:57;;;;;;;;;15.22;12.89;;;;;-5.72;70.01;101113.50;486795;111;381260;-45
2020/12/09 01:03:58;;;;;;;;;19.67;15.33;;;;;-5.67;70.35;101114.33;488459;110;383326;-47
2020/12/09 01:05:00;;;;;;;;;15.44;11.44;;;;;-5.68;69.98;101116.03;498075;108;388474;-49
2020/12/09 01:06:03;;;;;;;;;20.33;17.89;;;;;-5.72;70.06;101109.23;484378;113;382802;-50
2020/12/09 01:07:05;;;;;;;;;20.20;14.40;;;;;-5.74;69.84;101117.77;487739;110;383649;-49
2020/12/09 01:08:07;;;;;;;;;18.78;17.33;;;;;-5.73;69.88;101115.20;495574;108;382736;-50
2020/12/09 01:09:08;;;;;;;;;22.00;17.56;;;;;-5.73;69.88;101115.20;490578;108;384552;-52
2020/12/09 01:10:12;;;;;;;;;23.20;15.50;;;;;-5.66;69.98;101113.47;495132;108;383763;-50
2020/12/09 01:11:14;;;;;;;;;19.90;14.80;;;;;-5.66;69.98;101113.47;494421;108;383485;-47
2020/12/09 01:12:16;;;;;;;;;17.80;9.70;;;;;-5.61;69.72;101114.30;492472;108;377940;-49
2020/12/09 01:13:18;;;;;;;;;22.44;14.78;;;;;-5.61;69.72;101114.30;490654;108;382323;-47
2020/12/09 01:14:20;;;;;;;;;14.67;13.44;;;;;-5.55;69.43;101114.30;485710;111;378914;-51
2020/12/09 01:15:21;;;;;;;;;18.44;15.22;;;;;-5.55;69.43;101114.30;487090;110;379073;-45
2020/12/09 01:16:25;;;;;;;;;15.80;10.50;;;;;-5.53;69.57;101102.36;472619;114;378828;-48
2020/12/09 01:17:27;;;;;;;;;19.89;17.78;;;;;-5.53;69.57;101102.36;475752;114;386361;-49
2020/12/09 01:18:31;;;;;;;;;10.90;8.70;;;;;-5.51;69.65;101114.27;463350;117;377428;-52
2020/12/09 01:19:33;;;;;;;;;17.33;14.11;;;;;-5.51;69.65;101114.27;459810;118;382420;-50
2020/12/09 01:20:36;;;;;;;;;10.70;8.60;;;;;-5.54;69.42;101103.22;464090;117;376790;-45
2020/12/09 01:21:37;;;;;;;;;19.11;17.56;;;;;-5.57;69.66;101109.20;459652;118;382688;-49
2020/12/09 01:22:39;;;;;;;;;15.78;12.33;;;;;-5.53;69.62;101099.80;457518;118;384268;-51
2020/12/09 01:23:41;;;;;;;;;20.78;17.56;;;;;-5.53;69.62;101099.80;464693;117;387594;-49
2020/12/09 01:24:42;;;;;;;;;17.22;15.56;;;;;-5.45;69.76;101100.61;461608;118;382568;-47
2020/12/09 01:25:44;;;;;;;;;18.56;13.67;;;;;-5.66;69.73;101068.33;461918;117;383532;-50
2020/12/09 01:26:48;;;;;;;;;16.90;13.70;;;;;-5.38;70.20;101093.78;447665;121;379370;-49
2020/12/09 01:27:50;;;;;;;;;17.00;12.50;;;;;-5.45;69.82;101110.83;446259;121;380317;-51
2020/12/09 01:28:52;;;;;;;;;17.20;13.10;;;;;-5.45;69.82;101110.83;457107;118;379733;-51
2020/12/09 01:29:54;;;;;;;;;14.22;9.44;;;;;-5.40;70.01;101098.91;459124;118;385482;-49
2020/12/09 01:30:57;;;;;;;;;15.10;12.40;;;;;-5.40;70.01;101098.91;456835;118;379021;-50
2020/12/09 01:32:00;;;;;;;;;20.56;16.44;;;;;-5.51;70.01;101095.53;467809;117;383442;-51
2020/12/09 01:33:02;;;;;;;;;18.80;15.50;;;;;-5.51;70.40;101100.64;464609;117;391230;-54
2020/12/09 01:34:04;;;;;;;;;25.56;18.11;;;;;-5.55;70.57;101081.08;464430;116;382928;-48
2020/12/09 01:35:05;;;;;;;;;23.44;16.89;;;;;-5.43;70.33;101100.59;465417;116;383729;-50
2020/12/09 01:36:08;;;;;;;;;19.60;13.90;;;;;-5.43;70.33;101100.59;462806;117;388228;-47
2020/12/09 01:37:10;;;;;;;;;21.89;15.67;;;;;-5.41;70.25;101092.06;461440;116;381883;-47
2020/12/09 01:38:14;;;;;;;;;18.90;12.50;;;;;-5.41;70.25;101092.06;465746;116;379525;-49
2020/12/09 01:39:16;;;;;;;;;15.89;14.44;;;;;-5.40;70.38;101086.12;472877;114;381727;-51
2020/12/09 01:40:20;;;;;;;;;15.20;11.20;;;;;-5.41;70.62;101089.50;462773;116;378760;-49
2020/12/09 01:41:22;;;;;;;;;8.80;6.80;;;;;-5.41;70.62;101089.50;460166;117;376868;-47
2020/12/09 01:42:24;;;;;;;;;20.56;15.67;;;;;-5.44;70.96;101086.12;453868;120;384478;-49
2020/12/09 01:43:26;;;;;;;;;18.67;14.89;;;;;-5.36;71.10;101085.25;455958;119;381185;-47
2020/12/09 01:44:28;;;;;;;;;9.22;5.78;;;;;-5.36;71.10;101085.25;458108;118;375455;-48
2020/12/09 01:45:30;;;;;;;;;13.00;6.89;;;;;-5.30;70.82;101092.02;458183;118;375821;-48
2020/12/09 01:46:33;;;;;;;;;15.20;9.50;;;;;-5.30;70.82;101092.02;454536;120;377884;-47
2020/12/09 01:47:37;;;;;;;;;16.60;12.30;;;;;-5.25;70.71;101091.13;451445;120;378188;-50
2020/12/09 01:48:39;;;;;;;;;12.30;9.60;;;;;-5.25;70.71;101091.13;466074;116;377661;-48
2020/12/09 01:49:41;;;;;;;;;19.44;15.67;;;;;-5.19;70.75;101094.53;466339;116;391112;-51
2020/12/09 01:50:44;;;;;;;;;11.80;10.10;;;;;-5.19;70.75;101094.53;458173;119;375975;-49
2020/12/09 01:51:45;;;;;;;;;18.78;16.00;;;;;-5.21;70.84;101095.39;465790;116;388894;-48
2020/12/09 01:52:47;;;;;;;;;17.89;14.78;;;;;-5.18;71.07;101091.97;482598;112;380802;-48
2020/12/09 01:53:51;;;;;;;;;18.20;14.40;;;;;-5.18;71.07;101091.97;481365;112;381924;-48
2020/12/09 01:54:55;;;;;;;;;7.90;3.70;;;;;-5.08;71.26;101093.59;482829;112;375340;-46
2020/12/09 01:55:57;;;;;;;;;5.40;2.40;;;;;-5.10;71.10;101102.14;479909;113;379717;-48
2020/12/09 01:57:07;;;;;;;;;26.89;20.78;;;;;-5.10;71.10;101102.14;481935;113;383503;-47
2020/12/09 01:58:08;;;;;;;;;17.70;11.40;;;;;-5.10;70.84;101094.47;480005;113;379517;-47
2020/12/09 01:59:10;;;;;;;;;19.33;12.56;;;;;-5.09;70.93;101097.02;479223;113;381456;-48
2020/12/09 02:00:14;;;;;;;;;14.00;9.40;;;;;-5.12;71.27;101099.59;470733;115;376145;-51
2020/12/09 02:01:16;;;;;;;;;14.56;6.56;;;;;-5.12;71.27;101099.59;471498;115;378539;-48
2020/12/09 02:02:18;;;;;;;;;13.70;12.70;;;;;-5.06;71.35;101091.03;463171;117;377276;-49
2020/12/09 02:03:20;;;;;;;;;14.11;10.56;;;;;-5.06;71.35;101091.03;470074;115;378107;-47
2020/12/09 02:04:22;;;;;;;;;16.44;12.78;;;;;-5.08;71.31;101092.75;469661;115;382300;-48
2020/12/09 02:05:24;;;;;;;;;13.11;11.00;;;;;-5.05;71.33;101088.45;471028;115;375692;-52
2020/12/09 02:06:27;;;;;;;;;17.10;12.90;;;;;-5.06;71.37;101104.66;461652;117;378342;-51
2020/12/09 02:07:29;;;;;;;;;17.56;13.33;;;;;-5.06;71.37;101104.66;471138;115;380308;-45
2020/12/09 02:08:31;;;;;;;;;21.89;17.22;;;;;-5.06;71.42;101096.14;467088;116;382334;-47
2020/12/09 02:09:33;;;;;;;;;16.33;14.44;;;;;-5.03;71.47;101096.97;474753;114;379187;-46
2020/12/09 02:10:36;;;;;;;;;19.00;14.20;;;;;-5.01;71.46;101092.69;468670;116;381538;-49
2020/12/09 02:11:38;;;;;;;;;22.56;16.56;;;;;-4.96;71.30;101096.09;474450;114;382470;-50
2020/12/09 02:12:40;;;;;;;;;4.11;1.33;;;;;-4.93;71.58;101093.51;464672;117;372661;-49
2020/12/09 02:13:43;;;;;;;;;2.78;2.33;;;;;-4.86;71.42;101101.13;468864;115;372809;-48
2020/12/09 02:14:45;;;;;;;;;11.70;10.00;;;;;-4.86;71.42;101101.13;485340;112;377479;-50
2020/12/09 02:15:47;;;;;;;;;19.56;15.78;;;;;-4.96;71.53;101082.45;486816;112;382137;-48
2020/12/09 02:16:51;;;;;;;;;9.33;6.22;;;;;-4.88;71.46;101095.18;486007;112;375886;-50
2020/12/09 02:17:54;;;;;;;;;8.20;6.80;;;;;-4.86;71.55;101104.54;482337;112;374763;-51
2020/12/09 02:18:56;;;;;;;;;18.60;12.70;;;;;-4.86;71.55;101104.54;481258;112;381256;-48
2020/12/09 02:19:58;;;;;;;;;7.78;6.78;;;;;-4.84;71.76;101109.64;481457;112;376581;-49
2020/12/09 02:21:00;;;;;;;;;12.56;7.89;;;;;-4.81;71.85;101097.67;479386;112;376688;-49
2020/12/09 02:22:11;;;;;;;;;22.78;16.33;;;;;-4.81;71.85;101097.67;482181;111;382991;-49
2020/12/09 02:23:13;;;;;;;;;12.50;9.60;;;;;-4.74;71.80;101095.94;479713;112;383761;-49
2020/12/09 02:24:15;;;;;;;;;8.33;3.56;;;;;-4.82;71.75;101106.20;483193;112;372841;-50
2020/12/09 02:25:17;;;;;;;;;12.70;9.00;;;;;-4.90;72.05;101102.87;483214;113;375198;-50
2020/12/09 02:26:20;;;;;;;;;20.50;12.70;;;;;-4.90;72.05;101102.87;483191;113;379438;-48
2020/12/09 02:27:22;;;;;;;;;18.22;14.67;;;;;-4.79;72.03;101107.92;482658;113;381177;-49
2020/12/09 02:28:23;;;;;;;;;19.11;15.56;;;;;-4.79;72.03;101107.92;481438;113;382386;-49
2020/12/09 02:29:25;;;;;;;;;15.00;10.44;;;;;-4.77;72.00;101096.81;481573;112;376499;-47
2020/12/09 02:30:27;;;;;;;;;18.10;14.30;;;;;-4.72;71.88;101105.30;473879;115;379618;-49
2020/12/09 02:31:29;;;;;;;;;19.78;12.89;;;;;-4.75;71.84;101099.36;466693;117;378912;-50
2020/12/09 02:32:31;;;;;;;;;15.78;12.11;;;;;-4.71;71.74;101104.44;476517;114;378817;-49
2020/12/09 02:33:33;;;;;;;;;16.00;13.22;;;;;-4.71;71.74;101104.44;498650;108;381351;-50
2020/12/09 02:34:35;;;;;;;;;12.00;9.44;;;;;-4.73;71.96;101103.61;495354;110;385641;-50
2020/12/09 02:35:37;;;;;;;;;17.80;12.20;;;;;-4.76;71.99;101107.90;495394;110;378705;-47
2020/12/09 02:36:40;;;;;;;;;20.50;17.10;;;;;-4.71;71.79;101108.70;495010;110;388647;-49
2020/12/09 02:37:42;;;;;;;;;13.22;12.44;;;;;-4.66;71.82;101102.69;497521;108;380232;-51
2020/12/09 02:38:44;;;;;;;;;14.11;9.89;;;;;-4.66;71.82;101102.69;499510;108;375952;-48
2020/12/09 02:39:45;;;;;;;;;9.89;8.56;;;;;-4.67;71.73;101110.38;496707;108;374261;-47
2020/12/09 02:40:48;;;;;;;;;17.40;11.30;;;;;-4.73;71.97;101103.61;495001;110;385701;-47
2020/12/09 02:41:51;;;;;;;;;15.20;14.00;;;;;-4.73;71.97;101103.61;498480;108;379176;-49
2020/12/09 02:42:53;;;;;;;;;9.70;9.20;;;;;-4.72;71.96;101102.74;497275;108;373280;-49
2020/12/09 02:43:55;;;;;;;;;16.67;12.89;;;;;-4.70;71.94;101103.58;495342;110;378052;-49
2020/12/09 02:44:57;;;;;;;;;19.89;17.44;;;;;-4.72;72.31;101105.30;495767;108;388319;-49
2020/12/09 02:45:59;;;;;;;;;17.70;10.00;;;;;-4.72;71.94;101102.74;500073;108;377761;-49
2020/12/09 02:47:01;;;;;;;;;21.30;13.90;;;;;-4.72;71.94;101102.74;499743;108;384557;-50
2020/12/09 02:48:02;;;;;;;;;15.11;13.00;;;;;-4.71;72.00;101098.47;495411;110;383757;-47
2020/12/09 02:49:04;;;;;;;;;24.56;18.22;;;;;-4.71;72.00;101098.47;496761;108;383412;-50
2020/12/09 02:50:07;;;;;;;;;11.90;8.80;;;;;-4.61;72.06;101100.08;498588;108;376858;-50
2020/12/09 02:51:09;;;;;;;;;19.89;14.11;;;;;-4.61;72.06;101100.08;497395;108;383155;-47
2020/12/09 02:52:11;;;;;;;;;18.22;14.67;;;;;-4.63;72.08;101104.37;494782;110;381457;-47
2020/12/09 02:53:13;;;;;;;;;23.30;15.60;;;;;-4.68;72.30;101114.64;495242;110;382884;-51
2020/12/09 02:54:15;;;;;;;;;12.56;9.00;;;;;-4.68;72.30;101114.64;495463;110;376154;-49
2020/12/09 02:55:18;;;;;;;;;7.56;5.78;;;;;-4.62;72.13;101106.06;495732;110;374140;-47
2020/12/09 02:56:21;;;;;;;;;19.00;14.90;;;;;-4.68;72.16;101108.68;494443;110;382539;-45
2020/12/09 02:57:23;;;;;;;;;20.22;13.00;;;;;-4.66;72.00;101107.80;495379;110;381813;-47
2020/12/09 02:58:26;;;;;;;;;17.78;14.44;;;;;-4.68;72.45;101101.00;499397;108;380558;-47
2020/12/09 02:59:27;;;;;;;;;4.10;0.60;;;;;-4.68;72.45;101101.00;495101;110;379446;-49
2020/12/09 03:00:29;;;;;;;;;13.67;8.78;;;;;-4.67;72.25;101110.38;499321;108;375868;-50
2020/12/09 03:01:33;;;;;;;;;21.33;16.22;;;;;-4.67;72.25;101110.38;499517;108;381068;-49
2020/12/09 03:02:35;;;;;;;;;21.70;13.40;;;;;-4.63;72.34;101106.92;498154;108;382633;-50
2020/12/09 03:03:36;;;;;;;;;22.44;14.56;;;;;-4.63;72.50;101102.66;495260;110;382114;-54
2020/12/09 03:04:38;;;;;;;;;24.11;18.67;;;;;-4.73;72.62;101106.16;495146;110;390658;-50
2020/12/09 03:05:41;;;;;;;;;23.00;17.33;;;;;-4.67;72.57;101108.66;499614;108;382117;-49
2020/12/09 03:06:44;;;;;;;;;25.30;16.60;;;;;-4.67;72.57;101108.66;499892;108;381148;-47
2020/12/09 03:07:46;;;;;;;;;24.44;18.67;;;;;-4.63;72.39;101102.66;498479;108;383470;-48
2020/12/09 03:08:48;;;;;;;;;18.00;15.67;;;;;-4.64;72.48;101094.99;499212;108;382104;-49
2020/12/09 03:09:50;;;;;;;;;18.20;12.20;;;;;-4.63;72.44;101107.78;495765;108;377617;-46
2020/12/09 03:10:53;;;;;;;;;16.10;10.50;;;;;-4.61;72.63;101100.93;495838;108;386463;-46
2020/12/09 03:11:55;;;;;;;;;18.33;16.89;;;;;-4.65;72.75;101106.09;495258;110;384367;-48
2020/12/09 03:12:57;;;;;;;;;10.33;10.33;;;;;-4.65;72.75;101106.09;495411;110;379728;-50
2020/12/09 03:13:59;;;;;;;;;23.55;18.27;;;;;-4.70;72.94;101105.28;496961;109;382922;-50
2020/12/09 03:15:01;;;;;;;;;13.78;10.89;;;;;-4.64;72.77;101110.34;499170;108;374357;-47
2020/12/09 03:16:04;;;;;;;;;22.20;14.80;;;;;-4.65;72.82;101104.38;495847;108;380197;-46
2020/12/09 03:17:05;;;;;;;;;24.33;17.44;;;;;-4.64;73.16;101108.64;496458;108;382909;-52
2020/12/09 03:18:07;;;;;;;;;17.56;14.11;;;;;-4.64;73.16;101108.64;500215;108;381015;-48
2020/12/09 03:19:09;;;;;;;;;13.33;11.44;;;;;-4.63;73.01;101112.89;495646;108;377761;-48
2020/12/09 03:20:11;;;;;;;;;23.60;18.20;;;;;-4.64;72.94;101118.87;495329;110;380704;-45
2020/12/09 03:21:13;;;;;;;;;25.89;20.22;;;;;-4.64;72.94;101118.87;495602;108;382771;-47
2020/12/09 03:22:15;;;;;;;;;15.78;10.56;;;;;-4.61;72.92;101116.28;495366;110;377961;-46
2020/12/09 03:23:17;;;;;;;;;22.56;19.33;;;;;-4.54;72.83;101114.55;497987;108;382707;-51
2020/12/09 03:24:19;;;;;;;;;21.00;19.00;;;;;-4.54;72.83;101114.55;495278;110;382736;-50
2020/12/09 03:25:22;;;;;;;;;21.20;17.40;;;;;-4.53;72.75;101107.72;500532;108;382573;-48
2020/12/09 03:26:26;;;;;;;;;13.80;11.30;;;;;-4.57;72.88;101118.85;499443;108;376231;-47
2020/12/09 03:27:28;;;;;;;;;21.50;17.80;;;;;-4.58;73.01;101119.72;494776;110;383331;-48
2020/12/09 03:28:30;;;;;;;;;21.22;17.78;;;;;-4.56;72.92;101123.11;494782;110;381376;-48
2020/12/09 03:29:32;;;;;;;;;11.56;7.22;;;;;-4.52;72.78;101117.09;495313;110;375945;-46
2020/12/09 03:30:34;;;;;;;;;15.00;12.60;;;;;-4.50;72.51;101125.61;494629;110;380550;-50
2020/12/09 03:31:37;;;;;;;;;20.90;17.30;;;;;-4.50;72.65;101121.34;493862;110;382130;-50
2020/12/09 03:32:39;;;;;;;;;17.11;13.44;;;;;-4.46;72.54;101124.72;491196;110;381254;-48
2020/12/09 03:33:42;;;;;;;;;16.90;11.30;;;;;-4.45;72.60;101117.02;489664;110;378562;-50
2020/12/09 03:34:44;;;;;;;;;29.30;18.40;;;;;-4.45;72.57;101114.46;487145;111;383791;-49
2020/12/09 03:35:45;;;;;;;;;21.78;18.00;;;;;-4.49;72.63;101124.75;487739;111;382203;-45
2020/12/09 03:36:48;;;;;;;;;23.00;12.90;;;;;-4.53;72.79;101117.96;487820;111;382285;-47
2020/12/09 03:37:50;;;;;;;;;19.10;16.20;;;;;-4.53;72.79;101117.96;488654;111;380644;-46
2020/12/09 03:38:52;;;;;;;;;21.70;18.10;;;;;-4.49;72.75;101115.36;487464;111;386701;-47
2020/12/09 03:39:54;;;;;;;;;14.00;13.00;;;;;-4.49;72.77;101114.51;489777;110;377503;-50
2020/12/09 03:40:56;;;;;;;;;15.56;14.00;;;;;-4.46;72.68;101106.80;487824;112;379073;-49
2020/12/09 03:41:58;;;;;;;;;27.78;18.67;;;;;-4.47;72.81;101102.54;489053;110;391673;-50
2020/12/09 03:43:00;;;;;;;;;25.44;22.22;;;;;-4.54;72.61;101114.55;492441;110;382773;-48
2020/12/09 03:44:01;;;;;;;;;21.11;17.11;;;;;-4.55;72.88;101120.53;488551;110;383444;-46
2020/12/09 03:45:03;;;;;;;;;22.44;19.89;;;;;-4.52;73.02;101115.38;490278;110;382903;-47
2020/12/09 03:46:05;;;;;;;;;25.70;18.90;;;;;-4.52;73.02;101115.38;491323;110;382788;-46
2020/12/09 03:47:07;;;;;;;;;23.44;19.22;;;;;-4.52;73.12;101114.54;489659;111;383096;-49
2020/12/09 03:48:10;;;;;;;;;24.00;20.44;;;;;-4.54;73.33;101121.38;489513;110;388687;-47
2020/12/09 03:49:11;;;;;;;;;11.00;6.56;;;;;-4.51;73.23;101113.67;489494;111;376317;-46
2020/12/09 03:50:15;;;;;;;;;22.20;16.30;;;;;-4.54;73.19;101108.58;480020;113;381338;-48
2020/12/09 03:51:17;;;;;;;;;28.00;19.56;;;;;-4.55;73.67;101110.30;480123;112;391535;-50
2020/12/09 03:52:21;;;;;;;;;22.90;19.40;;;;;-4.55;73.67;101110.30;480956;112;384305;-45
2020/12/09 03:53:22;;;;;;;;;20.89;14.67;;;;;-4.55;73.56;101117.98;480322;112;381334;-51
2020/12/09 03:54:24;;;;;;;;;15.67;8.67;;;;;-4.64;73.60;101100.11;485396;112;378493;-49
2020/12/09 03:55:26;;;;;;;;;25.11;18.56;;;;;-4.62;73.98;101122.27;480265;113;384294;-50
2020/12/09 03:56:30;;;;;;;;;25.60;19.80;;;;;-4.59;74.19;101113.75;485418;112;382132;-50
2020/12/09 03:57:32;;;;;;;;;16.56;13.78;;;;;-4.55;73.81;101109.45;483708;112;380655;-50
2020/12/09 03:58:34;;;;;;;;;21.11;16.78;;;;;-4.53;73.73;101107.72;465821;117;391072;-50
2020/12/09 03:59:35;;;;;;;;;23.78;17.78;;;;;-4.53;73.73;101107.72;463562;116;390951;-49
2020/12/09 04:00:40;;;;;;;;;16.40;9.90;;;;;-4.50;73.92;101115.37;461136;116;377135;-50
2020/12/09 04:01:42;;;;;;;;;14.10;8.90;;;;;-4.66;74.05;101112.92;465553;116;376942;-49
2020/12/09 04:02:44;;;;;;;;;22.00;16.56;;;;;-4.66;74.05;101112.92;463905;116;381869;-48
2020/12/09 04:03:46;;;;;;;;;13.70;9.90;;;;;-4.54;73.94;101114.55;465343;116;377301;-49
2020/12/09 04:04:48;;;;;;;;;18.10;13.50;;;;;-4.56;74.25;101117.98;464978;116;380061;-47
2020/12/09 04:05:51;;;;;;;;;25.33;20.78;;;;;-4.55;74.28;101114.56;466091;116;383231;-47
2020/12/09 04:06:53;;;;;;;;;20.90;19.00;;;;;-4.62;74.34;101111.19;465931;116;382112;-50
2020/12/09 04:07:55;;;;;;;;;13.56;11.78;;;;;-4.62;74.42;101121.42;464902;117;378671;-49
2020/12/09 04:08:57;;;;;;;;;22.78;17.44;;;;;-4.63;74.87;101119.72;465517;116;382561;-47
2020/12/09 04:09:59;;;;;;;;;17.67;15.11;;;;;-4.54;74.59;101109.44;462180;116;378503;-46
2020/12/09 04:11:01;;;;;;;;;28.22;19.44;;;;;-4.53;74.65;101113.69;467169;116;382157;-53
2020/12/09 04:12:03;;;;;;;;;23.56;15.56;;;;;-4.57;74.76;101106.05;465956;116;381271;-49
2020/12/09 04:13:04;;;;;;;;;19.00;13.11;;;;;-4.57;74.76;101106.05;461964;117;381806;-49
2020/12/09 04:14:08;;;;;;;;;12.33;7.56;;;;;-4.61;74.94;101107.77;466573;116;376367;-49
2020/12/09 04:15:10;;;;;;;;;17.20;13.30;;;;;-4.66;75.25;101104.39;465928;116;379571;-48
2020/12/09 04:16:14;;;;;;;;;29.30;21.90;;;;;-4.67;75.46;101107.81;467965;115;383621;-48
2020/12/09 04:17:16;;;;;;;;;5.10;1.70;;;;;-4.57;75.43;101101.78;471461;115;372456;-48
2020/12/09 04:18:18;;;;;;;;;22.22;14.78;;;;;-4.52;75.25;101102.59;470138;115;379702;-50
2020/12/09 04:19:19;;;;;;;;;24.67;18.00;;;;;-4.52;75.25;101102.59;466916;115;388421;-50
2020/12/09 04:20:22;;;;;;;;;12.90;11.30;;;;;-4.60;75.45;101101.81;468874;115;385087;-45
2020/12/09 04:21:24;;;;;;;;;15.56;10.00;;;;;-4.56;75.43;101095.80;468055;115;376439;-49
2020/12/09 04:22:26;;;;;;;;;21.00;17.78;;;;;-4.56;75.43;101095.80;470665;115;389116;-47
2020/12/09 04:23:28;;;;;;;;;18.78;14.44;;;;;-4.55;75.74;101100.05;471218;115;379838;-52
2020/12/09 04:24:30;;;;;;;;;23.33;18.89;;;;;-4.60;75.98;101094.98;466033;117;381973;-48
2020/12/09 04:25:32;;;;;;;;;22.44;18.89;;;;;-4.56;76.04;101097.52;471190;115;381525;-46
2020/12/09 04:26:34;;;;;;;;;18.70;13.60;;;;;-4.56;76.04;101097.52;468232;115;382721;-50
2020/12/09 04:27:36;;;;;;;;;18.11;16.00;;;;;-4.57;76.35;101104.34;467027;116;383095;-50
2020/12/09 04:28:38;;;;;;;;;21.33;17.67;;;;;-4.60;76.14;101101.81;466848;115;383703;-50
2020/12/09 04:29:40;;;;;;;;;20.78;16.78;;;;;-4.60;76.14;101101.81;467889;115;382940;-48
2020/12/09 04:30:43;;;;;;;;;16.30;12.60;;;;;-4.51;76.33;101093.20;447037;121;378892;-45
2020/12/09 04:31:45;;;;;;;;;20.60;14.10;;;;;-4.56;76.39;101100.92;448015;121;390951;-48
2020/12/09 04:32:48;;;;;;;;;22.60;18.60;;;;;-4.53;76.40;101102.60;463837;115;381364;-51
2020/12/09 04:33:54;;;;;;;;;16.10;10.60;;;;;-4.55;77.01;101100.05;471034;115;375930;-47
2020/12/09 04:34:57;;;;;;;;;21.00;18.30;;;;;-4.55;76.92;101096.65;468686;115;381696;-50
2020/12/09 04:35:59;;;;;;;;;24.00;19.60;;;;;-4.55;76.92;101096.65;470344;115;392060;-50
2020/12/09 04:37:01;;;;;;;;;22.40;20.80;;;;;-4.53;77.07;101094.92;470105;115;382024;-46
2020/12/09 04:38:03;;;;;;;;;27.56;21.89;;;;;-4.47;76.76;101098.27;470615;115;388842;-50
2020/12/09 04:39:05;;;;;;;;;26.11;18.78;;;;;-4.49;76.83;101106.83;471287;114;383453;-48
2020/12/09 04:40:08;;;;;;;;;29.40;21.20;;;;;-4.48;76.94;101095.72;469914;115;392728;-47
2020/12/09 04:41:10;;;;;;;;;30.67;21.11;;;;;-4.49;77.01;101101.70;470602;115;384048;-44
2020/12/09 04:42:18;;;;;;;;;6.11;4.22;;;;;-4.47;77.06;101100.83;478844;113;373236;-48
2020/12/09 04:43:20;;;;;;;;;21.20;16.70;;;;;-4.48;77.20;101111.94;480882;113;394515;-51
2020/12/09 04:44:24;;;;;;;;;11.11;7.89;;;;;-4.42;76.97;101121.27;479641;113;374452;-49